Time;durP1;ratioP1;P1;durP2;ratioP2;P2;SDS_P1;SDS_P2;PMS_P1;PMS_P2;Temp;Humidity;BMP_temperature;BMP_pressure;BME280_temperature;BME280_humidity;BME280_pressure;Samples;Min_cycle;Max_cycle;Signal;HPM_P1;HPM_P2
2022/03/25 00:00:45;;;;;;;88.32;50.90;;;;;;;7.57;73.04;102862.03;5049155;28;20029;-73
2022/03/25 00:03:12;;;;;;;89.03;50.35;;;;;;;7.52;72.84;102876.13;5032416;28;20029;-73
2022/03/25 00:05:37;;;;;;;81.30;48.72;;;;;;;7.46;73.16;102876.31;5065427;28;20032;-73
2022/03/25 00:08:03;;;;;;;81.30;50.15;;;;;;;7.44;73.17;102875.50;5049569;28;20024;-73
2022/03/25 00:10:29;;;;;;;84.28;52.22;;;;;;;7.40;73.10;102871.25;5049105;28;20481;-73
2022/03/25 00:12:54;;;;;;;88.55;51.70;;;;;;;7.38;73.23;102870.44;5069299;28;20027;-73
2022/03/25 00:15:20;;;;;;;79.97;50.55;;;;;;;7.37;73.67;102873.09;5054946;28;20036;-73
2022/03/25 00:17:45;;;;;;;85.68;50.22;;;;;;;7.32;73.70;102878.47;5067370;28;20104;-73
2022/03/25 00:20:11;;;;;;;84.55;51.53;;;;;;;7.30;73.59;102877.66;5069754;28;20050;-73
2022/03/25 00:22:37;;;;;;;80.40;50.55;;;;;;;7.27;73.64;102882.97;5069045;28;20039;-73
2022/03/25 00:25:05;;;;;;;83.20;50.22;;;;;;;7.23;74.08;102878.72;5069947;28;20012;-73
2022/03/25 00:27:32;;;;;;;90.25;50.78;;;;;;;7.21;73.71;102883.16;5068929;28;20105;-73
2022/03/25 00:29:57;;;;;;;84.13;49.72;;;;;;;7.18;73.75;102885.81;5072539;28;20036;-73
2022/03/25 00:32:23;;;;;;;85.50;50.83;;;;;;;7.12;73.91;102886.00;5069386;28;20027;-73
2022/03/25 00:34:48;;;;;;;81.40;50.25;;;;;;;7.11;74.09;102886.91;5067930;28;20097;-73
2022/03/25 00:37:14;;;;;;;91.78;51.58;;;;;;;7.06;74.48;102880.91;5068894;28;20016;-73
2022/03/25 00:39:39;;;;;;;85.90;50.92;;;;;;;7.00;74.22;102875.84;5069086;28;20016;-73
2022/03/25 00:42:06;;;;;;;81.90;49.63;;;;;;;6.99;74.17;102885.47;5067292;28;20042;-73
2022/03/25 00:44:31;;;;;;;82.70;49.50;;;;;;;6.92;75.10;102886.53;5069029;28;20477;-73
2022/03/25 00:46:57;;;;;;;87.28;51.13;;;;;;;6.90;74.93;102883.09;5049044;28;20078;-73
2022/03/25 00:49:22;;;;;;;78.35;48.92;;;;;;;6.87;74.58;102884.03;5048884;28;20037;-73
2022/03/25 00:51:48;;;;;;;79.85;49.65;;;;;;;6.82;75.14;102880.69;5053171;28;20036;-73
2022/03/25 00:54:14;;;;;;;79.15;49.75;;;;;;;6.80;75.15;102879.84;5051943;28;20039;-73
2022/03/25 00:56:39;;;;;;;81.57;49.28;;;;;;;6.76;74.80;102887.81;5067182;28;20028;-75
2022/03/25 00:59:04;;;;;;;84.40;49.97;;;;;;;6.71;75.38;102872.22;5072972;28;20028;-76
2022/03/25 01:01:30;;;;;;;81.05;49.70;;;;;;;6.71;75.65;102876.59;5073495;28;20464;-75
2022/03/25 01:03:55;;;;;;;87.68;49.67;;;;;;;6.69;75.50;102875.78;5060687;28;20554;-75
2022/03/25 01:06:21;;;;;;;81.57;49.85;;;;;;;6.65;75.56;102875.00;5067877;28;20058;-76
2022/03/25 01:08:47;;;;;;;84.80;49.88;;;;;;;6.60;75.40;102882.97;5086608;28;20031;-76
2022/03/25 01:11:13;;;;;;;82.78;49.22;;;;;;;6.58;75.72;102881.28;5052484;28;20039;-75
2022/03/25 01:13:39;;;;;;;84.75;48.10;;;;;;;6.55;75.38;102883.97;5052574;28;20069;-74
2022/03/25 01:16:06;;;;;;;82.32;50.22;;;;;;;6.53;75.27;102884.00;5068405;28;20108;-74
2022/03/25 01:18:32;;;;;;;85.75;49.97;;;;;;;6.49;75.70;102881.50;5052536;28;20029;-74
2022/03/25 01:20:58;;;;;;;82.20;48.15;;;;;;;6.48;75.25;102880.66;5053390;28;20043;-74
2022/03/25 01:23:24;;;;;;;78.80;47.72;;;;;;;6.43;75.78;102885.16;5053575;28;20078;-76
2022/03/25 01:25:50;;;;;;;81.03;47.80;;;;;;;6.38;75.62;102880.88;5066668;28;20024;-76
2022/03/25 01:28:16;;;;;;;81.68;47.95;;;;;;;6.36;75.66;102880.06;5074993;28;20032;-76
2022/03/25 01:30:43;;;;;;;82.45;48.90;;;;;;;6.32;75.73;102881.03;5093524;28;20111;-76
2022/03/25 01:33:09;;;;;;;81.60;47.90;;;;;;;6.29;75.34;102876.75;5082820;28;20080;-76
2022/03/25 01:35:35;;;;;;;75.75;48.20;;;;;;;6.26;75.26;102877.69;5071282;28;20029;-76
2022/03/25 01:38:04;;;;;;;82.40;48.17;;;;;;;6.22;75.66;102868.19;5072954;28;20035;-76
2022/03/25 01:40:31;;;;;;;78.07;46.75;;;;;;;6.19;75.83;102870.88;5072376;28;20017;-75
2022/03/25 01:42:56;;;;;;;79.75;47.47;;;;;;;6.17;75.84;102871.81;5072756;28;20192;-75
2022/03/25 01:45:34;;;;;;;76.00;46.22;;;;;;;6.16;75.70;102870.94;5071547;28;20027;-75
2022/03/25 01:48:00;;;;;;;84.57;47.65;;;;;;;6.10;75.52;102865.88;5071405;28;20020;-75
2022/03/25 01:50:26;;;;;;;77.47;46.30;;;;;;;6.04;76.15;102871.25;5059332;28;20028;-75
2022/03/25 01:52:52;;;;;;;78.00;46.03;;;;;;;5.99;76.12;102862.63;5052110;28;20826;-75
2022/03/25 01:55:21;;;;;;;78.03;47.22;;;;;;;5.97;75.90;102867.03;5059864;28;20024;-75
2022/03/25 01:57:49;;;;;;;78.70;46.17;;;;;;;5.93;75.83;102873.22;5070656;28;20098;-75
2022/03/25 02:00:17;;;;;;;82.45;47.80;;;;;;;5.88;76.28;102868.06;5070150;28;20108;-75
2022/03/25 02:02:43;;;;;;;79.68;47.35;;;;;;;5.88;76.06;102875.03;5070923;28;20027;-75
2022/03/25 02:05:09;;;;;;;77.97;46.67;;;;;;;5.84;76.69;102873.38;5071957;28;20430;-75
2022/03/25 02:07:34;;;;;;;77.50;46.47;;;;;;;5.79;76.40;102865.66;5054481;28;20036;-75
2022/03/25 02:10:00;;;;;;;77.50;47.33;;;;;;;5.77;76.30;102866.56;5071894;28;20381;-75
2022/03/25 02:12:25;;;;;;;78.60;47.00;;;;;;;5.74;76.36;102867.50;5061700;28;20021;-75
2022/03/25 02:14:51;;;;;;;83.47;47.38;;;;;;;5.72;76.10;102871.91;5051099;28;20066;-75
2022/03/25 02:17:16;;;;;;;77.20;46.35;;;;;;;5.68;77.10;102872.00;5065051;28;20738;-75
2022/03/25 02:19:41;;;;;;;76.35;46.95;;;;;;;5.64;76.67;102869.47;5071551;28;20024;-75
2022/03/25 02:22:08;;;;;;;74.95;45.75;;;;;;;5.60;76.83;102865.19;5070989;28;20031;-75
2022/03/25 02:24:34;;;;;;;74.82;44.97;;;;;;;5.57;76.20;102866.97;5070394;28;20048;-75
2022/03/25 02:27:02;;;;;;;74.32;44.70;;;;;;;5.56;76.79;102862.66;5070488;28;20040;-75
2022/03/25 02:29:27;;;;;;;72.78;43.35;;;;;;;5.54;76.55;102864.44;5083101;28;20024;-75
2022/03/25 02:31:53;;;;;;;73.63;44.67;;;;;;;5.54;76.25;102859.22;5090351;28;20176;-75
2022/03/25 02:34:18;;;;;;;74.53;43.10;;;;;;;5.50;76.67;102854.94;5090895;28;20044;-75
2022/03/25 02:36:45;;;;;;;76.07;43.40;;;;;;;5.51;76.51;102867.97;5088447;28;20027;-73
2022/03/25 02:39:13;;;;;;;74.78;44.15;;;;;;;5.46;76.50;102867.19;5064571;28;20124;-73
2022/03/25 02:41:39;;;;;;;71.22;42.70;;;;;;;5.46;76.73;102867.19;5070421;28;20058;-73
2022/03/25 02:44:05;;;;;;;74.80;42.88;;;;;;;5.41;76.05;102866.44;5070662;28;20016;-73
2022/03/25 02:46:31;;;;;;;74.90;42.95;;;;;;;5.40;75.86;102862.13;5071692;28;20067;-73
2022/03/25 02:48:57;;;;;;;68.15;42.08;;;;;;;5.36;76.00;102865.69;5070943;28;20456;-73
2022/03/25 02:51:23;;;;;;;71.65;41.92;;;;;;;5.33;75.81;102865.75;5069948;28;20048;-73
2022/03/25 02:53:48;;;;;;;71.13;42.25;;;;;;;5.29;75.64;102864.09;5069007;28;20032;-73
2022/03/25 02:56:14;;;;;;;65.38;40.65;;;;;;;5.29;75.87;102869.31;5070861;28;20537;-73
2022/03/25 02:58:39;;;;;;;70.13;41.63;;;;;;;5.25;75.37;102867.66;5069641;28;20107;-74
2022/03/25 03:01:08;;;;;;;69.40;41.63;;;;;;;5.22;75.64;102867.72;5066936;28;20017;-73
2022/03/25 03:03:34;;;;;;;69.07;40.65;;;;;;;5.16;75.32;102867.78;5069871;28;20021;-73
2022/03/25 03:06:00;;;;;;;66.50;40.15;;;;;;;5.15;75.30;102871.28;5069978;28;20020;-73
2022/03/25 03:08:27;;;;;;;71.80;41.00;;;;;;;5.08;75.30;102861.88;5061590;28;20036;-73
2022/03/25 03:10:53;;;;;;;64.22;39.80;;;;;;;5.02;75.85;102870.66;5065349;28;20023;-73
2022/03/25 03:13:18;;;;;;;68.30;40.70;;;;;;;5.00;75.84;102875.06;5068282;28;20388;-73
2022/03/25 03:15:44;;;;;;;67.22;40.17;;;;;;;4.95;75.56;102875.16;5054641;28;20476;-73
2022/03/25 03:18:10;;;;;;;63.33;40.08;;;;;;;4.92;75.52;102875.19;5070228;28;20031;-73
2022/03/25 03:20:35;;;;;;;69.28;40.90;;;;;;;4.86;76.09;102875.31;5070970;28;20491;-73
2022/03/25 03:23:02;;;;;;;66.88;39.58;;;;;;;4.85;75.77;102875.34;5070428;28;20035;-73
2022/03/25 03:25:27;;;;;;;68.32;38.92;;;;;;;4.79;75.67;102865.84;5070513;28;20020;-73
2022/03/25 03:27:54;;;;;;;68.30;39.30;;;;;;;4.76;75.65;102876.34;5070169;28;20032;-73
2022/03/25 03:30:19;;;;;;;67.65;40.72;;;;;;;4.73;75.90;102879.00;5088231;28;20031;-73
2022/03/25 03:32:45;;;;;;;66.65;40.03;;;;;;;4.66;76.26;102869.56;5089720;28;20052;-73
2022/03/25 03:35:11;;;;;;;68.85;40.55;;;;;;;4.61;76.82;102869.63;5088799;28;20069;-73
2022/03/25 03:37:45;;;;;;;69.20;40.15;;;;;;;4.58;76.28;102874.06;5081816;28;20050;-73
2022/03/25 03:40:12;;;;;;;69.57;40.67;;;;;;;4.56;76.37;102874.06;5056448;28;20028;-73
2022/03/25 03:42:38;;;;;;;62.67;39.90;;;;;;;4.52;76.42;102879.38;5067741;28;20675;-73
2022/03/25 03:45:05;;;;;;;64.00;40.72;;;;;;;4.45;76.78;102867.31;5068400;28;20020;-73
2022/03/25 03:47:30;;;;;;;65.68;39.58;;;;;;;4.43;76.58;102863.88;5069959;28;20450;-73
2022/03/25 03:49:56;;;;;;;66.50;40.58;;;;;;;4.40;76.25;102868.25;5069756;28;20187;-73
2022/03/25 03:52:23;;;;;;;64.15;39.97;;;;;;;4.37;76.55;102870.88;5069268;28;20032;-73
2022/03/25 03:54:49;;;;;;;69.22;39.83;;;;;;;4.33;76.66;102870.97;5069823;28;20097;-73
2022/03/25 03:57:14;;;;;;;67.15;39.10;;;;;;;4.30;76.80;102874.47;5063394;28;20037;-73
2022/03/25 03:59:40;;;;;;;68.57;40.97;;;;;;;4.29;76.88;102877.09;5069386;28;20032;-73
2022/03/25 04:02:06;;;;;;;67.55;40.08;;;;;;;4.25;76.10;102876.28;5070249;28;20021;-73
2022/03/25 04:04:31;;;;;;;67.00;40.60;;;;;;;4.21;76.60;102876.38;5070075;28;20028;-73
2022/03/25 04:06:56;;;;;;;72.25;40.53;;;;;;;4.17;76.43;102872.94;5069826;28;20037;-74
2022/03/25 04:09:22;;;;;;;65.78;39.50;;;;;;;4.14;76.59;102877.34;5068705;28;20039;-73
2022/03/25 04:11:47;;;;;;;66.07;39.22;;;;;;;4.11;76.19;102867.84;5085650;28;20025;-73
2022/03/25 04:14:13;;;;;;;63.38;39.33;;;;;;;4.08;76.77;102875.69;5057875;28;20036;-73
2022/03/25 04:16:38;;;;;;;65.18;38.92;;;;;;;4.04;75.95;102874.88;5065850;28;20028;-74
2022/03/25 04:19:03;;;;;;;66.13;39.97;;;;;;;4.02;76.43;102878.38;5064528;28;20024;-73
2022/03/25 04:21:29;;;;;;;68.20;39.40;;;;;;;3.96;76.26;102884.50;5054526;28;20486;-73
2022/03/25 04:23:54;;;;;;;67.05;39.75;;;;;;;3.95;76.65;102881.94;5068306;28;20024;-73
2022/03/25 04:26:20;;;;;;;64.63;39.22;;;;;;;3.90;76.88;102884.59;5062176;28;20328;-73
2022/03/25 04:28:45;;;;;;;67.78;39.47;;;;;;;3.89;76.65;102887.22;5069258;28;20497;-73
2022/03/25 04:31:10;;;;;;;68.57;39.58;;;;;;;3.86;77.05;102892.47;5089684;28;20024;-73
2022/03/25 04:33:37;;;;;;;69.45;40.00;;;;;;;3.82;77.11;102890.81;5089496;28;20086;-73
2022/03/25 04:36:03;;;;;;;69.32;38.83;;;;;;;3.78;77.33;102896.03;5070679;28;20515;-73
2022/03/25 04:38:29;;;;;;;69.65;39.70;;;;;;;3.73;77.59;102897.00;5072646;28;20020;-73
2022/03/25 04:40:55;;;;;;;69.75;40.47;;;;;;;3.68;77.00;102883.19;5069144;28;20464;-73
2022/03/25 04:43:21;;;;;;;66.70;40.33;;;;;;;3.64;76.99;102890.16;5066691;28;20104;-73
2022/03/25 04:45:46;;;;;;;65.10;39.55;;;;;;;3.63;77.26;102891.03;5067842;28;20119;-73
2022/03/25 04:48:12;;;;;;;68.60;40.42;;;;;;;3.59;77.30;102894.53;5069025;28;20086;-73
2022/03/25 04:50:38;;;;;;;67.30;40.20;;;;;;;3.57;77.12;102891.09;5068514;28;20408;-73
2022/03/25 04:53:06;;;;;;;71.30;40.97;;;;;;;3.52;77.13;102890.28;5068975;28;20116;-73
2022/03/25 04:55:31;;;;;;;69.43;40.00;;;;;;;3.50;77.47;102894.66;5066880;28;20066;-73
2022/03/25 04:57:58;;;;;;;70.03;40.55;;;;;;;3.48;77.16;102896.41;5068021;28;20122;-75
2022/03/25 05:00:23;;;;;;;66.35;39.85;;;;;;;3.46;77.31;102898.16;5057368;28;20036;-75
2022/03/25 05:02:48;;;;;;;70.28;40.80;;;;;;;3.43;77.27;102899.06;5069806;28;20028;-75
2022/03/25 05:05:15;;;;;;;70.38;41.50;;;;;;;3.42;77.77;102897.34;5068003;28;20123;-75
2022/03/25 05:07:42;;;;;;;68.53;40.83;;;;;;;3.39;77.85;102896.53;5067084;28;20024;-75
2022/03/25 05:10:08;;;;;;;69.40;40.88;;;;;;;3.33;77.64;102894.00;5067617;28;20396;-75
2022/03/25 05:12:34;;;;;;;68.57;40.70;;;;;;;3.34;77.37;102893.13;5067307;28;20024;-75
2022/03/25 05:14:59;;;;;;;70.32;41.78;;;;;;;3.29;77.97;102894.91;5069125;28;20029;-76
2022/03/25 05:17:26;;;;;;;74.00;42.15;;;;;;;3.25;78.44;102901.03;5069023;28;20029;-75
2022/03/25 05:19:51;;;;;;;72.78;40.47;;;;;;;3.23;78.21;102905.38;5069364;28;20129;-75
2022/03/25 05:22:16;;;;;;;71.43;42.22;;;;;;;3.20;78.26;102907.97;5068059;28;20119;-72
2022/03/25 05:24:42;;;;;;;69.72;40.78;;;;;;;3.20;78.77;102905.38;5067017;28;20396;-73
2022/03/25 05:27:07;;;;;;;72.82;42.47;;;;;;;3.19;78.56;102909.72;5069256;28;20056;-73
2022/03/25 05:29:32;;;;;;;72.30;42.42;;;;;;;3.13;77.83;102907.19;5081099;28;20031;-72
2022/03/25 05:31:58;;;;;;;76.32;43.05;;;;;;;3.12;78.10;102906.31;5069047;28;20047;-77
2022/03/25 05:34:23;;;;;;;73.47;42.13;;;;;;;3.14;78.45;102909.78;5068774;28;20041;-77
2022/03/25 05:36:48;;;;;;;71.57;40.75;;;;;;;3.09;78.63;102908.97;5069850;28;20100;-77
2022/03/25 05:39:16;;;;;;;71.50;41.10;;;;;;;3.08;78.13;102912.44;5070926;28;20052;-77
2022/03/25 05:41:43;;;;;;;73.95;43.30;;;;;;;3.00;78.79;102909.06;5063978;28;20034;-77
2022/03/25 05:44:08;;;;;;;71.80;41.65;;;;;;;3.02;79.15;102912.50;5072507;28;20031;-77
2022/03/25 05:46:34;;;;;;;76.57;42.63;;;;;;;3.01;78.84;102918.56;5064748;28;20029;-77
2022/03/25 05:49:01;;;;;;;72.05;40.95;;;;;;;3.00;78.97;102921.19;5035276;28;20028;-75
2022/03/25 05:51:26;;;;;;;71.93;41.95;;;;;;;2.99;78.59;102922.94;5051870;28;20115;-75
2022/03/25 05:53:51;;;;;;;74.93;41.67;;;;;;;2.99;79.18;102922.94;5067098;28;20120;-75
2022/03/25 05:56:17;;;;;;;76.00;43.25;;;;;;;2.99;79.06;102922.94;5065191;28;20120;-75
2022/03/25 05:58:43;;;;;;;77.00;42.53;;;;;;;2.96;78.92;102917.75;5071016;28;20548;-75
2022/03/25 06:01:09;;;;;;;71.85;42.88;;;;;;;2.96;79.02;102922.97;5070535;28;20028;-75
2022/03/25 06:03:34;;;;;;;71.47;42.90;;;;;;;3.00;79.31;102927.25;5071401;28;20027;-75
2022/03/25 06:06:03;;;;;;;74.65;42.45;;;;;;;2.97;79.96;102924.69;5070358;28;20035;-75
2022/03/25 06:08:30;;;;;;;78.25;42.20;;;;;;;2.97;79.38;102927.28;5071289;28;20050;-75
2022/03/25 06:10:55;;;;;;;81.75;42.92;;;;;;;2.96;79.13;102927.31;5070891;28;20025;-75
2022/03/25 06:13:21;;;;;;;79.25;42.38;;;;;;;2.97;79.75;102929.03;5069924;28;20536;-75
2022/03/25 06:15:47;;;;;;;77.82;43.58;;;;;;;3.00;79.37;102932.47;5071535;28;20093;-75
2022/03/25 06:18:13;;;;;;;75.68;43.70;;;;;;;3.00;80.33;102929.84;5071996;28;20037;-73
2022/03/25 06:20:39;;;;;;;75.28;42.63;;;;;;;3.02;79.68;102938.50;5066967;28;20449;-73
2022/03/25 06:23:05;;;;;;;76.85;42.67;;;;;;;3.04;79.39;102939.34;5060119;28;20103;-73
2022/03/25 06:25:30;;;;;;;80.75;44.33;;;;;;;3.04;79.51;102936.75;5051827;28;20025;-73
2022/03/25 06:27:58;;;;;;;75.53;43.35;;;;;;;3.12;80.34;102942.75;5068175;28;20378;-73
2022/03/25 06:30:27;;;;;;;79.45;45.65;;;;;;;3.15;79.71;102945.31;5088178;28;20036;-73
2022/03/25 06:32:53;;;;;;;78.78;46.25;;;;;;;3.20;80.04;102947.00;5069939;28;20511;-73
2022/03/25 06:35:19;;;;;;;88.10;46.28;;;;;;;3.27;79.78;102951.28;5070497;28;20032;-73
2022/03/25 06:37:44;;;;;;;81.53;45.70;;;;;;;3.31;80.19;102955.59;5071446;28;20361;-73
2022/03/25 06:40:11;;;;;;;85.18;47.83;;;;;;;3.37;80.55;102960.72;5070068;28;20537;-73
2022/03/25 06:42:39;;;;;;;86.45;47.58;;;;;;;3.44;80.81;102957.19;5070562;28;20395;-73
2022/03/25 06:45:07;;;;;;;87.45;47.75;;;;;;;3.51;80.41;102958.84;5069888;28;20017;-73
2022/03/25 06:47:32;;;;;;;83.75;49.25;;;;;;;3.58;79.42;102960.47;5071399;28;20056;-73
2022/03/25 06:49:58;;;;;;;87.28;50.00;;;;;;;3.66;79.63;102956.09;5070738;28;20056;-73
2022/03/25 06:52:24;;;;;;;85.30;49.15;;;;;;;3.72;79.60;102945.59;5056986;28;20116;-73
2022/03/25 06:54:50;;;;;;;85.60;49.67;;;;;;;3.82;80.14;102948.06;5069475;28;20020;-73
2022/03/25 06:57:17;;;;;;;87.43;51.33;;;;;;;3.88;79.70;102950.59;5076936;28;20194;-73
2022/03/25 06:59:43;;;;;;;86.00;49.60;;;;;;;3.95;79.24;102949.66;5056091;28;20057;-73
2022/03/25 07:02:10;;;;;;;91.35;52.80;;;;;;;4.01;79.23;102960.00;5069329;28;20119;-73
2022/03/25 07:04:36;;;;;;;92.97;53.55;;;;;;;4.09;79.82;102952.94;5071404;28;20020;-73
2022/03/25 07:07:04;;;;;;;94.47;53.28;;;;;;;4.17;79.78;102948.50;5071054;28;20058;-73
2022/03/25 07:09:30;;;;;;;95.00;55.80;;;;;;;4.26;79.37;102957.91;5086371;28;20036;-73
2022/03/25 07:11:57;;;;;;;94.55;56.22;;;;;;;4.34;79.97;102956.94;5069692;28;20062;-75
2022/03/25 07:14:23;;;;;;;94.32;54.05;;;;;;;4.45;80.45;102966.38;5069398;28;20025;-75
2022/03/25 07:16:49;;;;;;;99.93;59.78;;;;;;;4.57;80.37;102961.81;5068793;28;20031;-72
2022/03/25 07:19:15;;;;;;;102.70;58.83;;;;;;;4.66;80.38;102964.28;5069650;28;20388;-73
2022/03/25 07:21:40;;;;;;;100.70;59.35;;;;;;;4.73;80.16;102962.44;5064281;28;20032;-73
2022/03/25 07:24:05;;;;;;;98.38;58.90;;;;;;;4.89;80.27;102969.16;5063244;28;20025;-73
2022/03/25 07:26:31;;;;;;;102.72;59.70;;;;;;;5.00;79.47;102972.44;5052031;28;20055;-73
2022/03/25 07:28:56;;;;;;;95.70;59.53;;;;;;;5.13;79.29;102969.63;5078373;28;20032;-73
2022/03/25 07:31:22;;;;;;;100.32;60.55;;;;;;;5.24;79.28;102984.22;5089945;28;20027;-73
2022/03/25 07:33:48;;;;;;;97.45;58.85;;;;;;;5.34;78.24;102972.72;5090025;28;20055;-73
2022/03/25 07:36:13;;;;;;;95.22;58.53;;;;;;;5.47;78.35;102975.97;5053022;28;20436;-73
2022/03/25 07:38:38;;;;;;;100.88;58.28;;;;;;;5.59;77.88;102982.69;5066118;28;20033;-73
2022/03/25 07:41:04;;;;;;;99.07;58.30;;;;;;;5.71;78.01;102977.25;5069760;28;20029;-73
2022/03/25 07:43:31;;;;;;;96.20;57.60;;;;;;;5.83;77.21;102977.00;5066298;28;20032;-73
2022/03/25 07:45:57;;;;;;;97.88;58.22;;;;;;;5.95;76.40;102981.16;5069551;28;20024;-73
2022/03/25 07:48:22;;;;;;;101.80;59.47;;;;;;;6.06;77.23;102989.66;5085491;28;20100;-73
2022/03/25 07:50:47;;;;;;;96.88;58.75;;;;;;;6.17;76.60;102989.41;5082199;28;20443;-73
2022/03/25 07:53:13;;;;;;;105.32;59.85;;;;;;;6.32;76.48;102990.84;5074911;28;20043;-73
2022/03/25 07:55:38;;;;;;;98.68;59.83;;;;;;;6.42;74.73;102992.38;5069531;28;20029;-72
2022/03/25 07:58:04;;;;;;;100.72;58.95;;;;;;;6.52;73.50;103002.59;5068293;28;20020;-73
2022/03/25 08:00:30;;;;;;;97.68;57.65;;;;;;;6.66;73.65;103002.28;5069348;28;20054;-73
2022/03/25 08:02:56;;;;;;;96.57;60.25;;;;;;;6.76;73.40;103009.00;5066316;28;20078;-73
2022/03/25 08:05:23;;;;;;;93.60;57.33;;;;;;;6.88;72.33;103005.25;5048262;28;20020;-73
2022/03/25 08:07:57;;;;;;;98.40;59.63;;;;;;;7.00;72.34;103014.56;5050110;28;20078;-73
2022/03/25 08:10:28;;;;;;;95.95;60.55;;;;;;;7.11;70.85;103015.16;5067137;28;20027;-73
2022/03/25 08:12:57;;;;;;;93.60;57.67;;;;;;;7.25;71.46;103007.84;5067821;28;20034;-73
2022/03/25 08:15:24;;;;;;;95.10;59.92;;;;;;;7.40;70.80;103014.44;5070085;28;20104;-73
2022/03/25 08:18:13;;;;;;;94.60;58.60;;;;;;;7.51;70.17;103020.25;5069922;28;20786;-73
2022/03/25 08:20:47;;;;;;;94.13;58.85;;;;;;;7.66;69.45;103019.84;5067587;28;20049;-73
2022/03/25 08:28:57;;;;;;;98.95;61.65;;;;;;;8.08;68.86;103016.94;5071826;28;20350;-73
2022/03/25 08:31:24;;;;;;;100.05;59.92;;;;;;;8.21;68.27;103018.28;5080210;28;20046;-73
2022/03/25 08:33:50;;;;;;;95.70;57.58;;;;;;;8.30;66.69;103028.50;5075320;28;20398;-73
2022/03/25 08:36:18;;;;;;;91.78;58.83;;;;;;;8.47;66.96;103025.44;5074924;28;20068;-73
2022/03/25 08:38:44;;;;;;;91.03;56.67;;;;;;;8.56;65.94;103025.16;5069360;28;20048;-73
2022/03/25 08:41:10;;;;;;;92.53;55.70;;;;;;;8.67;65.24;103025.66;5068803;28;20056;-73
2022/03/25 08:43:39;;;;;;;92.15;57.22;;;;;;;8.82;64.98;103026.97;5069711;28;20039;-73
2022/03/25 08:46:07;;;;;;;93.93;55.83;;;;;;;8.93;64.60;103024.88;5069491;28;20024;-73
2022/03/25 08:48:33;;;;;;;84.40;52.10;;;;;;;9.04;62.78;103028.00;5069061;28;20557;-73
2022/03/25 08:50:58;;;;;;;81.60;49.70;;;;;;;9.17;62.66;103025.81;5067728;28;20036;-73
2022/03/25 08:53:24;;;;;;;84.63;50.17;;;;;;;9.26;60.50;103022.03;5067863;28;20498;-73
2022/03/25 08:55:49;;;;;;;86.10;51.92;;;;;;;9.39;61.40;103026.81;5068722;28;20032;-78
2022/03/25 08:58:14;;;;;;;82.93;51.97;;;;;;;9.50;60.36;103026.44;5069083;28;20103;-79
2022/03/25 09:00:40;;;;;;;86.30;50.58;;;;;;;9.62;60.28;103030.44;5069480;28;20028;-79
2022/03/25 09:03:05;;;;;;;83.35;49.17;;;;;;;9.73;59.58;103029.16;5067196;28;20480;-79
2022/03/25 09:05:32;;;;;;;85.32;50.33;;;;;;;9.85;59.25;103029.63;5069706;28;20020;-79
2022/03/25 09:07:58;;;;;;;82.68;49.85;;;;;;;9.99;59.63;103033.44;5068815;28;20040;-79
2022/03/25 09:10:23;;;;;;;82.50;49.33;;;;;;;10.14;59.87;103037.31;5068308;28;20392;-79
2022/03/25 09:12:49;;;;;;;80.45;47.53;;;;;;;10.22;57.70;103043.16;5072585;28;20035;-79
2022/03/25 09:15:16;;;;;;;80.88;48.30;;;;;;;10.36;58.21;103034.75;5073446;28;20538;-79
2022/03/25 09:17:45;;;;;;;83.07;50.17;;;;;;;10.46;56.64;103033.50;5072747;28;20112;-79
2022/03/25 09:20:12;;;;;;;74.93;47.20;;;;;;;10.61;56.43;103038.16;5072874;28;20031;-79
2022/03/25 09:22:37;;;;;;;85.10;48.90;;;;;;;10.71;56.17;103038.66;5083457;28;20142;-79
2022/03/25 09:25:04;;;;;;;78.40;47.13;;;;;;;10.83;56.03;103040.84;5071313;28;20017;-79
2022/03/25 09:27:30;;;;;;;80.47;48.38;;;;;;;10.97;56.22;103037.63;5073032;28;20511;-82
2022/03/25 09:29:55;;;;;;;86.93;47.85;;;;;;;11.09;54.98;103045.03;5078129;28;20103;-74
2022/03/25 09:32:20;;;;;;;81.55;48.00;;;;;;;11.21;54.09;103034.00;5067420;28;20024;-73
2022/03/25 09:37:32;;;;;;;78.53;45.00;;;;;;;11.46;53.67;103039.09;5072120;28;20023;-75
2022/03/25 09:39:57;;;;;;;74.03;44.63;;;;;;;11.58;52.78;103037.69;5072903;28;20111;-75
2022/03/25 09:42:23;;;;;;;66.90;42.78;;;;;;;11.69;52.94;103043.38;5072304;28;20107;-75
2022/03/25 09:44:49;;;;;;;66.00;40.42;;;;;;;11.80;52.35;103041.16;5071053;28;20499;-75
2022/03/25 09:47:16;;;;;;;69.20;42.22;;;;;;;11.89;51.99;103035.47;5072708;28;20145;-75
2022/03/25 09:49:42;;;;;;;62.28;39.70;;;;;;;12.03;51.92;103031.38;5072359;28;20392;-75
2022/03/25 09:52:09;;;;;;;64.45;37.22;;;;;;;12.11;49.76;103027.47;5060117;28;20032;-75
2022/03/25 09:54:37;;;;;;;64.70;37.55;;;;;;;12.27;50.80;103019.69;5071930;28;20108;-75
2022/03/25 09:57:03;;;;;;;59.38;37.22;;;;;;;12.39;49.59;103024.38;5070105;28;20028;-75
2022/03/25 09:59:29;;;;;;;56.42;34.47;;;;;;;12.49;49.81;103022.19;5056919;28;20096;-76
2022/03/25 10:01:55;;;;;;;61.25;36.38;;;;;;;12.61;48.89;103024.25;5052467;28;20120;-76
2022/03/25 10:04:40;;;;;;;56.47;35.53;;;;;;;12.73;50.48;103031.56;5066788;28;20028;-75
2022/03/25 10:07:27;;;;;;;54.80;34.65;;;;;;;12.85;48.91;103030.16;5071457;28;20493;-77
2022/03/25 10:10:15;;;;;;;56.03;35.55;;;;;;;13.00;50.42;103018.81;5087141;28;20108;-76
2022/03/25 10:12:48;;;;;;;51.45;33.00;;;;;;;13.14;47.31;103018.13;5071636;28;20028;-76
2022/03/25 10:15:13;;;;;;;;;;;;;;;13.17;51.36;103018.84;5072020;28;20025;-76
2022/03/25 10:17:47;;;;;;;57.33;34.97;;;;;;;13.31;47.88;103014.69;5070433;28;19908;-76
2022/03/25 10:20:14;;;;;;;58.63;36.10;;;;;;;13.43;46.15;103016.69;5082176;28;20039;-76
2022/03/25 10:22:40;;;;;;;60.15;33.97;;;;;;;13.48;44.30;103017.31;5065070;28;20027;-76
2022/03/25 10:25:09;;;;;;;56.22;33.97;;;;;;;13.62;45.10;103012.19;5071011;28;20111;-76
2022/03/25 10:27:36;;;;;;;55.25;33.17;;;;;;;13.78;46.01;103010.41;5071478;28;20499;-76
2022/03/25 10:30:05;;;;;;;53.78;31.90;;;;;;;13.92;44.69;103011.47;5087222;28;20055;-75
2022/03/25 10:32:31;;;;;;;48.17;30.95;;;;;;;13.99;43.09;103010.19;5070892;28;20551;-75
2022/03/25 10:35:14;;;;;;;48.70;29.45;;;;;;;14.08;44.35;103015.03;5069539;28;20093;-76
2022/03/25 10:37:55;;;;;;;43.85;29.38;;;;;;;14.20;43.96;103009.06;5071942;28;20038;-75
2022/03/25 10:40:21;;;;;;;48.00;28.92;;;;;;;14.32;42.12;103011.03;5096542;27;20111;-78
2022/03/25 10:43:05;;;;;;;47.85;28.25;;;;;;;14.49;44.66;103001.34;5070354;28;20139;-77
2022/03/25 10:45:31;;;;;;;46.67;27.38;;;;;;;14.65;42.27;103002.16;5071734;28;20021;-77
2022/03/25 10:48:15;;;;;;;49.17;27.40;;;;;;;14.73;43.44;103005.22;5069772;28;20329;-78
2022/03/25 10:51:04;;;;;;;43.28;28.20;;;;;;;14.92;43.04;103010.34;5080481;28;20431;-78
2022/03/25 10:53:32;;;;;;;45.65;29.40;;;;;;;14.98;40.11;102997.59;5040364;28;20510;-77
2022/03/25 10:56:01;;;;;;;44.13;28.00;;;;;;;15.07;40.00;102995.34;5083266;28;20028;-78
2022/03/25 10:58:26;;;;;;;45.65;27.02;;;;;;;15.10;39.08;103001.31;5087434;28;20423;-78
2022/03/25 11:00:52;;;;;;;43.58;27.45;;;;;;;15.25;40.11;102997.78;5069638;28;20035;-77
2022/03/25 11:03:17;;;;;;;42.17;24.83;;;;;;;15.47;39.89;102997.34;5070578;28;20020;-78
2022/03/25 11:05:44;;;;;;;43.70;24.75;;;;;;;15.57;38.74;103001.13;5071244;28;20024;-77
2022/03/25 11:08:10;;;;;;;42.65;25.33;;;;;;;15.77;39.06;102996.44;5069967;28;20805;-77
2022/03/25 11:10:36;;;;;;;39.97;24.50;;;;;;;15.93;39.32;102989.22;5079708;28;20079;-77
2022/03/25 11:13:03;;;;;;;39.38;24.95;;;;;;;16.04;38.82;102992.09;5070816;28;20029;-78
2022/03/25 11:15:30;;;;;;;38.72;25.67;;;;;;;16.30;38.72;102983.31;5066113;28;20658;-77
2022/03/25 11:17:56;;;;;;;39.90;24.75;;;;;;;16.50;39.22;102991.81;5068370;28;20540;-77
2022/03/25 11:20:25;;;;;;;39.90;25.35;;;;;;;16.43;36.57;102990.50;5090068;28;20036;-77
2022/03/25 11:23:20;;;;;;;45.35;25.38;;;;;;;16.60;39.47;102987.59;5078630;28;20036;-78